KBFIKTIW

Guest
Details From KBFI - Boeing Field King Co Intl
To KTIW - TACOMA NARROWS
Flight Number -
Tags generated
Created
Modified
Stats Distance 21 nm / 38 km
Max Altitude 2,000 ft / 610 m
Waypoints 3
Social Downloads 0
Likes 0
Share VATSIM

Download

Looking for another format? Having issues loading an existing format? Contact us
Advertisement - Login to hide

Notes

Basic altitude profile: - Ascent Rate: 2500ft/min - Ascent Speed: 250kts - Cruise Altitude: 4000ft - Cruise Speed: 420kts - Descent Rate: 1500ft/min - Descent Speed: 250kts Options: - Use NATs: yes - Use PACOTS: yes - Use low airways: yes - Use high airways: yes

Route

KBFI SEA KTIW

ID Type Via Altitude Latitude Longitude Leg Dist Tot Dist Heading (true) Name
O KBFI APT - 0 ft / 0 m 47.53110˚ -122.30251˚ - 0 nm - Boeing Field King Co Intl
SEA VOR - 2,000 ft / 610 m 47.43536˚ -122.30961˚ 5 nm 5 nm 183° / 183° SEATTLE VORTAC
O KTIW APT - 0 ft / 0 m 47.26793˚ -122.57811˚ 14 nm 20 nm 227° / 227° TACOMA NARROWS

Altitude Profile

Advertisement - Login to hide

KBFI

Details ICAO KBFI (BFI)
Name Boeing Field King Co Intl
Region United States
Timezone America/Los_Angeles (UTC-8.0)
Stats Elevation 20 ft / 6 m (AMSL)
Location 47.531101° -122.302515°
Runways 2
Magnetic Variation 15.703° E

METAR

KBFI 130253Z 00000KT 10SM FEW150 06/01 A3042 RMK AO2 SLP299 T00560006 53001

Decode

TAF

TAF KBFI 122320Z 1300/1324 34004KT P6SM BKN060 BKN200 FM130300 00000KT P6SM SCT250 FM131300 00000KT 1/2SM FG BKN004 FM132000 02003KT 5SM BR SCT005 FM132300 02003KT P6SM SKC

Decode

Departure Runways

ID Width Length Bearing (true) Bearing (mag) Surface Threshold Offset Overrun Length
13L 100 ft / 30 m 3,708 ft / 1,130 m 150.28° 134.58° Asphalt 240 ft / 73 m 0 ft / 0 m
13R 200 ft / 61 m 9,997 ft / 3,047 m 150.27° 134.57° Asphalt 0 ft / 0 m 896 ft / 273 m
31L 200 ft / 61 m 9,997 ft / 3,047 m 330.29° 314.59° Asphalt 879 ft / 268 m 151 ft / 46 m
31R 100 ft / 30 m 3,708 ft / 1,130 m 330.28° 314.58° Asphalt 364 ft / 111 m 0 ft / 0 m

KTIW

Details ICAO KTIW (TIW)
Name TACOMA NARROWS
Region United States
Timezone America/Los_Angeles (UTC-8.0)
Stats Elevation 292 ft / 89 m (AMSL)
Location 47.267930° -122.578113°
Runways 1
Magnetic Variation 15.690° E

METAR

KTIW 130253Z 00000KT 10SM CLR 05/02 A3040 RMK AO2 SLP297 T00500022 58001

Decode

TAF

Not found

Destination Runways

ID Width Length Bearing (true) Bearing (mag) Surface Threshold Offset Overrun Length
17 150 ft / 46 m 5,004 ft / 1,525 m 186.99° 171.30° Asphalt 0 ft / 0 m 0 ft / 0 m
35 150 ft / 46 m 5,004 ft / 1,525 m 6.99° 351.30° Asphalt 0 ft / 0 m 0 ft / 0 m

Approach Navaids

Runway Type Ident Frequency Range Bearing (true) Bearing (mag) Slope Elevation
17 Localiser ITIW 109.10 MHz 18 nm / 33 km 186.99° 171.30° - 292 ft / 89 m (AMSL)
17 Glidescope ITIW 109.10 MHz 10 nm / 19 km 186.99° 171.30° 3.00° 292 ft / 89 m (AMSL)

Popular Alternatives